sensor_id;sensor_type;location;lat;lon;timestamp;P1;durP1;ratioP1;P2;durP2;ratioP2
25023;SDS011;13033;50.936;5.334;2023-05-10T00:01:01;17.38;;;11.98;;
25023;SDS011;13033;50.936;5.334;2023-05-10T00:03:27;16.38;;;12.13;;
25023;SDS011;13033;50.936;5.334;2023-05-10T00:05:53;14.30;;;11.52;;
25023;SDS011;13033;50.936;5.334;2023-05-10T00:08:18;17.95;;;11.98;;
25023;SDS011;13033;50.936;5.334;2023-05-10T00:10:44;17.10;;;11.43;;
25023;SDS011;13033;50.936;5.334;2023-05-10T00:13:10;16.90;;;11.15;;
25023;SDS011;13033;50.936;5.334;2023-05-10T00:15:36;17.08;;;11.40;;
25023;SDS011;13033;50.936;5.334;2023-05-10T00:18:01;15.93;;;11.40;;
25023;SDS011;13033;50.936;5.334;2023-05-10T00:20:27;17.02;;;11.65;;
25023;SDS011;13033;50.936;5.334;2023-05-10T00:22:53;19.67;;;11.70;;
25023;SDS011;13033;50.936;5.334;2023-05-10T00:25:18;18.55;;;11.95;;
25023;SDS011;13033;50.936;5.334;2023-05-10T00:27:46;15.95;;;11.75;;
25023;SDS011;13033;50.936;5.334;2023-05-10T00:30:12;17.95;;;11.77;;
25023;SDS011;13033;50.936;5.334;2023-05-10T00:32:38;18.42;;;11.82;;
25023;SDS011;13033;50.936;5.334;2023-05-10T00:35:04;16.98;;;11.55;;
25023;SDS011;13033;50.936;5.334;2023-05-10T00:37:30;15.40;;;11.65;;
25023;SDS011;13033;50.936;5.334;2023-05-10T00:39:55;18.17;;;11.60;;
25023;SDS011;13033;50.936;5.334;2023-05-10T00:42:21;16.08;;;12.00;;
25023;SDS011;13033;50.936;5.334;2023-05-10T00:44:47;16.33;;;11.93;;
25023;SDS011;13033;50.936;5.334;2023-05-10T00:47:13;17.88;;;12.10;;
25023;SDS011;13033;50.936;5.334;2023-05-10T00:49:39;16.20;;;12.18;;
25023;SDS011;13033;50.936;5.334;2023-05-10T00:52:05;16.35;;;11.45;;
25023;SDS011;13033;50.936;5.334;2023-05-10T00:54:31;20.27;;;12.18;;
25023;SDS011;13033;50.936;5.334;2023-05-10T00:56:57;19.40;;;11.80;;
25023;SDS011;13033;50.936;5.334;2023-05-10T00:59:23;18.63;;;11.30;;
25023;SDS011;13033;50.936;5.334;2023-05-10T01:01:49;14.65;;;10.82;;
25023;SDS011;13033;50.936;5.334;2023-05-10T01:04:17;18.58;;;11.05;;
25023;SDS011;13033;50.936;5.334;2023-05-10T01:06:45;20.30;;;11.65;;
25023;SDS011;13033;50.936;5.334;2023-05-10T01:09:11;18.00;;;11.48;;
25023;SDS011;13033;50.936;5.334;2023-05-10T01:11:37;14.68;;;11.35;;
25023;SDS011;13033;50.936;5.334;2023-05-10T01:14:03;17.25;;;12.02;;
25023;SDS011;13033;50.936;5.334;2023-05-10T01:16:33;19.15;;;11.95;;
25023;SDS011;13033;50.936;5.334;2023-05-10T01:19:02;16.70;;;11.83;;
25023;SDS011;13033;50.936;5.334;2023-05-10T01:32:07;19.70;;;11.73;;
25023;SDS011;13033;50.936;5.334;2023-05-10T01:34:36;17.55;;;11.35;;
25023;SDS011;13033;50.936;5.334;2023-05-10T01:37:09;22.30;;;12.20;;
25023;SDS011;13033;50.936;5.334;2023-05-10T01:39:47;22.83;;;13.07;;
25023;SDS011;13033;50.936;5.334;2023-05-10T01:42:23;21.23;;;11.82;;
25023;SDS011;13033;50.936;5.334;2023-05-10T01:47:31;25.20;;;12.75;;
25023;SDS011;13033;50.936;5.334;2023-05-10T01:50:10;23.58;;;12.70;;
25023;SDS011;13033;50.936;5.334;2023-05-10T01:52:42;21.77;;;13.50;;
25023;SDS011;13033;50.936;5.334;2023-05-10T01:55:14;26.38;;;12.98;;
25023;SDS011;13033;50.936;5.334;2023-05-10T01:57:42;23.08;;;13.07;;
25023;SDS011;13033;50.936;5.334;2023-05-10T02:00:11;20.50;;;12.60;;
25023;SDS011;13033;50.936;5.334;2023-05-10T02:02:40;23.27;;;12.73;;
25023;SDS011;13033;50.936;5.334;2023-05-10T02:05:10;26.15;;;13.25;;
25023;SDS011;13033;50.936;5.334;2023-05-10T02:07:38;21.77;;;13.13;;
25023;SDS011;13033;50.936;5.334;2023-05-10T02:10:05;21.33;;;13.30;;
25023;SDS011;13033;50.936;5.334;2023-05-10T02:12:36;20.67;;;12.65;;
25023;SDS011;13033;50.936;5.334;2023-05-10T02:15:04;22.13;;;12.75;;
25023;SDS011;13033;50.936;5.334;2023-05-10T02:17:32;21.52;;;13.27;;
25023;SDS011;13033;50.936;5.334;2023-05-10T02:19:59;25.75;;;14.23;;
25023;SDS011;13033;50.936;5.334;2023-05-10T02:22:27;18.10;;;12.45;;
25023;SDS011;13033;50.936;5.334;2023-05-10T02:24:54;20.88;;;12.45;;
25023;SDS011;13033;50.936;5.334;2023-05-10T02:27:23;25.75;;;13.45;;
25023;SDS011;13033;50.936;5.334;2023-05-10T02:29:50;23.48;;;13.07;;
25023;SDS011;13033;50.936;5.334;2023-05-10T02:32:17;23.27;;;13.70;;
25023;SDS011;13033;50.936;5.334;2023-05-10T02:34:44;21.05;;;13.07;;
25023;SDS011;13033;50.936;5.334;2023-05-10T02:37:12;20.58;;;13.30;;
25023;SDS011;13033;50.936;5.334;2023-05-10T02:39:40;20.95;;;12.40;;
25023;SDS011;13033;50.936;5.334;2023-05-10T02:42:11;25.50;;;13.48;;
25023;SDS011;13033;50.936;5.334;2023-05-10T02:44:42;18.98;;;12.60;;
25023;SDS011;13033;50.936;5.334;2023-05-10T02:47:10;21.42;;;12.52;;
25023;SDS011;13033;50.936;5.334;2023-05-10T02:49:36;25.27;;;13.85;;
25023;SDS011;13033;50.936;5.334;2023-05-10T02:52:01;24.50;;;12.75;;
25023;SDS011;13033;50.936;5.334;2023-05-10T02:54:33;25.40;;;13.77;;
25023;SDS011;13033;50.936;5.334;2023-05-10T02:57:04;23.85;;;13.27;;
25023;SDS011;13033;50.936;5.334;2023-05-10T02:59:31;27.15;;;14.13;;
25023;SDS011;13033;50.936;5.334;2023-05-10T03:01:57;26.05;;;13.90;;
25023;SDS011;13033;50.936;5.334;2023-05-10T03:04:25;26.33;;;13.48;;
25023;SDS011;13033;50.936;5.334;2023-05-10T03:06:51;22.30;;;14.10;;
25023;SDS011;13033;50.936;5.334;2023-05-10T03:09:17;29.13;;;14.85;;
25023;SDS011;13033;50.936;5.334;2023-05-10T03:11:49;28.25;;;14.85;;
25023;SDS011;13033;50.936;5.334;2023-05-10T03:17:39;25.17;;;14.38;;
25023;SDS011;13033;50.936;5.334;2023-05-10T03:20:08;26.02;;;14.60;;
25023;SDS011;13033;50.936;5.334;2023-05-10T03:22:47;23.25;;;13.80;;
25023;SDS011;13033;50.936;5.334;2023-05-10T03:25:17;27.83;;;13.93;;
25023;SDS011;13033;50.936;5.334;2023-05-10T03:27:45;31.77;;;14.50;;
25023;SDS011;13033;50.936;5.334;2023-05-10T03:30:12;23.02;;;13.98;;
25023;SDS011;13033;50.936;5.334;2023-05-10T03:32:39;22.55;;;13.60;;
25023;SDS011;13033;50.936;5.334;2023-05-10T03:35:11;24.80;;;14.50;;
25023;SDS011;13033;50.936;5.334;2023-05-10T03:37:39;29.50;;;15.38;;
25023;SDS011;13033;50.936;5.334;2023-05-10T03:40:04;29.08;;;15.70;;
25023;SDS011;13033;50.936;5.334;2023-05-10T03:42:31;28.92;;;15.15;;
25023;SDS011;13033;50.936;5.334;2023-05-10T03:44:57;26.20;;;14.70;;
25023;SDS011;13033;50.936;5.334;2023-05-10T03:47:22;27.65;;;15.65;;
25023;SDS011;13033;50.936;5.334;2023-05-10T03:49:48;27.73;;;16.05;;
25023;SDS011;13033;50.936;5.334;2023-05-10T03:52:13;26.83;;;15.77;;
25023;SDS011;13033;50.936;5.334;2023-05-10T03:54:39;27.85;;;16.15;;
25023;SDS011;13033;50.936;5.334;2023-05-10T03:57:05;28.63;;;15.75;;
25023;SDS011;13033;50.936;5.334;2023-05-10T03:59:30;28.20;;;16.08;;
25023;SDS011;13033;50.936;5.334;2023-05-10T04:01:56;28.77;;;16.08;;
25023;SDS011;13033;50.936;5.334;2023-05-10T04:04:22;30.00;;;16.77;;
25023;SDS011;13033;50.936;5.334;2023-05-10T04:06:48;30.88;;;16.80;;
25023;SDS011;13033;50.936;5.334;2023-05-10T04:09:14;35.40;;;17.10;;
25023;SDS011;13033;50.936;5.334;2023-05-10T04:11:40;25.80;;;15.77;;
25023;SDS011;13033;50.936;5.334;2023-05-10T04:14:05;29.08;;;17.23;;
25023;SDS011;13033;50.936;5.334;2023-05-10T04:16:31;34.13;;;18.85;;
25023;SDS011;13033;50.936;5.334;2023-05-10T04:18:56;33.15;;;18.88;;
25023;SDS011;13033;50.936;5.334;2023-05-10T04:21:22;31.70;;;19.05;;
25023;SDS011;13033;50.936;5.334;2023-05-10T04:23:48;34.45;;;18.63;;
25023;SDS011;13033;50.936;5.334;2023-05-10T04:26:13;37.75;;;20.30;;
25023;SDS011;13033;50.936;5.334;2023-05-10T04:28:39;34.28;;;19.00;;
25023;SDS011;13033;50.936;5.334;2023-05-10T04:31:06;31.40;;;18.42;;
25023;SDS011;13033;50.936;5.334;2023-05-10T04:33:34;36.17;;;19.23;;
25023;SDS011;13033;50.936;5.334;2023-05-10T04:36:00;32.85;;;18.45;;
25023;SDS011;13033;50.936;5.334;2023-05-10T04:38:27;33.35;;;19.30;;
25023;SDS011;13033;50.936;5.334;2023-05-10T04:40:53;36.22;;;20.65;;
25023;SDS011;13033;50.936;5.334;2023-05-10T04:43:18;34.13;;;18.73;;
25023;SDS011;13033;50.936;5.334;2023-05-10T04:45:50;38.03;;;20.60;;
25023;SDS011;13033;50.936;5.334;2023-05-10T04:48:15;38.90;;;21.13;;
25023;SDS011;13033;50.936;5.334;2023-05-10T04:50:41;39.40;;;20.67;;
25023;SDS011;13033;50.936;5.334;2023-05-10T04:53:06;42.72;;;20.92;;
25023;SDS011;13033;50.936;5.334;2023-05-10T04:55:32;41.08;;;22.15;;
25023;SDS011;13033;50.936;5.334;2023-05-10T04:57:58;41.35;;;21.73;;
25023;SDS011;13033;50.936;5.334;2023-05-10T05:00:24;40.83;;;21.88;;
25023;SDS011;13033;50.936;5.334;2023-05-10T05:02:49;52.45;;;23.90;;
25023;SDS011;13033;50.936;5.334;2023-05-10T05:05:15;40.03;;;21.92;;
25023;SDS011;13033;50.936;5.334;2023-05-10T05:07:40;45.67;;;23.08;;
25023;SDS011;13033;50.936;5.334;2023-05-10T05:10:06;42.70;;;23.33;;
25023;SDS011;13033;50.936;5.334;2023-05-10T05:12:33;48.03;;;24.83;;
25023;SDS011;13033;50.936;5.334;2023-05-10T05:14:59;45.15;;;24.23;;
25023;SDS011;13033;50.936;5.334;2023-05-10T05:17:25;45.50;;;24.65;;
25023;SDS011;13033;50.936;5.334;2023-05-10T05:19:51;48.55;;;24.67;;
25023;SDS011;13033;50.936;5.334;2023-05-10T05:22:17;43.40;;;24.60;;
25023;SDS011;13033;50.936;5.334;2023-05-10T05:24:44;45.60;;;25.33;;
25023;SDS011;13033;50.936;5.334;2023-05-10T05:27:10;49.72;;;24.42;;
25023;SDS011;13033;50.936;5.334;2023-05-10T05:29:36;50.33;;;26.05;;
25023;SDS011;13033;50.936;5.334;2023-05-10T05:32:01;52.70;;;25.15;;
25023;SDS011;13033;50.936;5.334;2023-05-10T05:34:27;50.55;;;26.95;;
25023;SDS011;13033;50.936;5.334;2023-05-10T05:36:53;56.97;;;27.30;;
25023;SDS011;13033;50.936;5.334;2023-05-10T05:39:19;54.45;;;26.83;;
25023;SDS011;13033;50.936;5.334;2023-05-10T05:41:44;59.38;;;29.13;;
25023;SDS011;13033;50.936;5.334;2023-05-10T05:44:11;63.47;;;29.85;;
25023;SDS011;13033;50.936;5.334;2023-05-10T05:46:37;62.22;;;29.02;;
25023;SDS011;13033;50.936;5.334;2023-05-10T05:49:03;64.60;;;30.50;;
25023;SDS011;13033;50.936;5.334;2023-05-10T05:51:28;60.45;;;28.88;;
25023;SDS011;13033;50.936;5.334;2023-05-10T05:53:54;66.95;;;29.45;;
25023;SDS011;13033;50.936;5.334;2023-05-10T05:56:20;61.83;;;28.73;;
25023;SDS011;13033;50.936;5.334;2023-05-10T05:58:49;63.13;;;28.55;;
25023;SDS011;13033;50.936;5.334;2023-05-10T06:01:15;62.25;;;29.60;;
25023;SDS011;13033;50.936;5.334;2023-05-10T06:03:41;57.47;;;30.15;;
25023;SDS011;13033;50.936;5.334;2023-05-10T06:06:07;65.18;;;28.88;;
25023;SDS011;13033;50.936;5.334;2023-05-10T06:08:33;57.85;;;28.52;;
25023;SDS011;13033;50.936;5.334;2023-05-10T06:10:59;58.92;;;27.92;;
25023;SDS011;13033;50.936;5.334;2023-05-10T06:13:29;66.15;;;29.30;;
25023;SDS011;13033;50.936;5.334;2023-05-10T06:15:57;60.13;;;28.58;;
25023;SDS011;13033;50.936;5.334;2023-05-10T06:18:23;60.40;;;28.60;;
25023;SDS011;13033;50.936;5.334;2023-05-10T06:20:49;60.05;;;28.35;;
25023;SDS011;13033;50.936;5.334;2023-05-10T06:23:15;56.33;;;28.75;;
25023;SDS011;13033;50.936;5.334;2023-05-10T06:25:40;66.85;;;30.85;;
25023;SDS011;13033;50.936;5.334;2023-05-10T06:28:06;69.82;;;30.33;;
25023;SDS011;13033;50.936;5.334;2023-05-10T06:30:32;64.05;;;29.95;;
25023;SDS011;13033;50.936;5.334;2023-05-10T06:32:57;62.13;;;30.08;;
25023;SDS011;13033;50.936;5.334;2023-05-10T06:35:23;60.72;;;30.33;;
25023;SDS011;13033;50.936;5.334;2023-05-10T06:37:49;62.88;;;30.85;;
25023;SDS011;13033;50.936;5.334;2023-05-10T06:40:16;59.92;;;27.40;;
25023;SDS011;13033;50.936;5.334;2023-05-10T06:42:42;64.45;;;30.17;;
25023;SDS011;13033;50.936;5.334;2023-05-10T06:45:09;60.13;;;29.08;;
25023;SDS011;13033;50.936;5.334;2023-05-10T06:47:35;64.53;;;30.90;;
25023;SDS011;13033;50.936;5.334;2023-05-10T06:50:01;64.93;;;29.77;;
25023;SDS011;13033;50.936;5.334;2023-05-10T06:52:27;67.88;;;30.48;;
25023;SDS011;13033;50.936;5.334;2023-05-10T06:54:53;66.15;;;31.15;;
25023;SDS011;13033;50.936;5.334;2023-05-10T06:57:18;65.20;;;29.98;;
25023;SDS011;13033;50.936;5.334;2023-05-10T06:59:45;67.65;;;30.73;;
25023;SDS011;13033;50.936;5.334;2023-05-10T07:02:11;63.97;;;29.95;;
25023;SDS011;13033;50.936;5.334;2023-05-10T07:04:37;65.00;;;30.35;;
25023;SDS011;13033;50.936;5.334;2023-05-10T07:07:02;63.22;;;29.35;;
25023;SDS011;13033;50.936;5.334;2023-05-10T07:09:28;66.15;;;29.60;;
25023;SDS011;13033;50.936;5.334;2023-05-10T07:11:54;63.20;;;30.15;;
25023;SDS011;13033;50.936;5.334;2023-05-10T07:14:22;67.07;;;29.92;;
25023;SDS011;13033;50.936;5.334;2023-05-10T07:16:47;58.65;;;28.75;;
25023;SDS011;13033;50.936;5.334;2023-05-10T07:19:13;59.42;;;28.55;;
25023;SDS011;13033;50.936;5.334;2023-05-10T07:21:39;62.03;;;29.30;;
25023;SDS011;13033;50.936;5.334;2023-05-10T07:24:07;62.65;;;30.25;;
25023;SDS011;13033;50.936;5.334;2023-05-10T07:26:33;57.95;;;28.30;;
25023;SDS011;13033;50.936;5.334;2023-05-10T07:28:58;56.40;;;28.65;;
25023;SDS011;13033;50.936;5.334;2023-05-10T07:31:24;60.22;;;27.58;;
25023;SDS011;13033;50.936;5.334;2023-05-10T07:33:49;56.55;;;27.70;;
25023;SDS011;13033;50.936;5.334;2023-05-10T07:36:15;54.97;;;27.20;;
25023;SDS011;13033;50.936;5.334;2023-05-10T07:38:41;51.22;;;26.35;;
25023;SDS011;13033;50.936;5.334;2023-05-10T07:41:06;48.35;;;25.63;;
25023;SDS011;13033;50.936;5.334;2023-05-10T07:43:32;50.03;;;25.52;;
25023;SDS011;13033;50.936;5.334;2023-05-10T07:45:57;45.45;;;25.50;;
25023;SDS011;13033;50.936;5.334;2023-05-10T07:48:24;45.20;;;25.05;;
25023;SDS011;13033;50.936;5.334;2023-05-10T07:50:51;44.92;;;24.85;;
25023;SDS011;13033;50.936;5.334;2023-05-10T07:53:16;45.05;;;24.95;;
25023;SDS011;13033;50.936;5.334;2023-05-10T07:55:43;44.33;;;24.10;;
25023;SDS011;13033;50.936;5.334;2023-05-10T07:58:10;40.60;;;24.05;;
25023;SDS011;13033;50.936;5.334;2023-05-10T08:00:35;38.95;;;22.08;;
25023;SDS011;13033;50.936;5.334;2023-05-10T08:03:04;42.83;;;23.02;;
25023;SDS011;13033;50.936;5.334;2023-05-10T08:05:29;38.88;;;21.73;;
25023;SDS011;13033;50.936;5.334;2023-05-10T08:07:56;36.97;;;21.95;;
25023;SDS011;13033;50.936;5.334;2023-05-10T08:10:21;38.88;;;23.02;;
25023;SDS011;13033;50.936;5.334;2023-05-10T08:12:49;31.60;;;19.55;;
25023;SDS011;13033;50.936;5.334;2023-05-10T08:15:14;24.05;;;13.13;;
25023;SDS011;13033;50.936;5.334;2023-05-10T08:17:40;8.52;;;6.00;;
25023;SDS011;13033;50.936;5.334;2023-05-10T08:20:06;7.40;;;4.40;;
25023;SDS011;13033;50.936;5.334;2023-05-10T08:22:32;7.95;;;4.15;;
25023;SDS011;13033;50.936;5.334;2023-05-10T08:24:58;4.90;;;3.60;;
25023;SDS011;13033;50.936;5.334;2023-05-10T08:27:24;5.68;;;3.47;;
25023;SDS011;13033;50.936;5.334;2023-05-10T08:29:49;5.00;;;3.65;;
25023;SDS011;13033;50.936;5.334;2023-05-10T08:32:15;6.97;;;3.65;;
25023;SDS011;13033;50.936;5.334;2023-05-10T08:34:40;5.10;;;3.45;;
25023;SDS011;13033;50.936;5.334;2023-05-10T08:37:06;4.18;;;2.90;;
25023;SDS011;13033;50.936;5.334;2023-05-10T08:39:35;5.47;;;3.88;;
25023;SDS011;13033;50.936;5.334;2023-05-10T08:42:01;6.30;;;3.22;;
25023;SDS011;13033;50.936;5.334;2023-05-10T08:44:30;6.50;;;3.38;;
25023;SDS011;13033;50.936;5.334;2023-05-10T08:46:57;6.47;;;4.00;;
25023;SDS011;13033;50.936;5.334;2023-05-10T08:49:27;6.13;;;3.78;;
25023;SDS011;13033;50.936;5.334;2023-05-10T08:51:56;7.03;;;4.10;;
25023;SDS011;13033;50.936;5.334;2023-05-10T08:54:22;6.90;;;4.20;;
25023;SDS011;13033;50.936;5.334;2023-05-10T08:56:49;8.45;;;4.45;;
25023;SDS011;13033;50.936;5.334;2023-05-10T08:59:14;7.53;;;3.97;;
25023;SDS011;13033;50.936;5.334;2023-05-10T09:01:40;8.02;;;4.40;;
25023;SDS011;13033;50.936;5.334;2023-05-10T09:04:09;7.22;;;3.90;;
25023;SDS011;13033;50.936;5.334;2023-05-10T09:06:35;7.80;;;4.45;;
25023;SDS011;13033;50.936;5.334;2023-05-10T09:09:02;8.20;;;4.68;;
25023;SDS011;13033;50.936;5.334;2023-05-10T09:11:28;6.57;;;4.38;;
25023;SDS011;13033;50.936;5.334;2023-05-10T09:13:55;6.65;;;4.43;;
25023;SDS011;13033;50.936;5.334;2023-05-10T09:16:21;7.30;;;5.30;;
25023;SDS011;13033;50.936;5.334;2023-05-10T09:18:47;7.13;;;4.85;;
25023;SDS011;13033;50.936;5.334;2023-05-10T09:21:14;9.30;;;5.40;;
25023;SDS011;13033;50.936;5.334;2023-05-10T09:23:43;5.53;;;4.38;;
25023;SDS011;13033;50.936;5.334;2023-05-10T09:26:12;10.35;;;5.15;;
25023;SDS011;13033;50.936;5.334;2023-05-10T09:31:45;8.57;;;5.00;;
25023;SDS011;13033;50.936;5.334;2023-05-10T09:34:15;9.60;;;5.25;;
25023;SDS011;13033;50.936;5.334;2023-05-10T09:36:50;8.95;;;5.78;;
25023;SDS011;13033;50.936;5.334;2023-05-10T09:39:21;8.63;;;5.97;;
25023;SDS011;13033;50.936;5.334;2023-05-10T09:42:02;8.63;;;6.03;;
25023;SDS011;13033;50.936;5.334;2023-05-10T09:44:32;9.20;;;5.60;;
25023;SDS011;13033;50.936;5.334;2023-05-10T09:46:59;8.63;;;6.40;;
25023;SDS011;13033;50.936;5.334;2023-05-10T09:49:28;10.48;;;6.53;;
25023;SDS011;13033;50.936;5.334;2023-05-10T09:52:01;8.68;;;6.32;;
25023;SDS011;13033;50.936;5.334;2023-05-10T09:54:28;10.73;;;6.95;;
25023;SDS011;13033;50.936;5.334;2023-05-10T09:56:54;10.02;;;7.47;;
25023;SDS011;13033;50.936;5.334;2023-05-10T09:59:20;12.35;;;7.50;;
25023;SDS011;13033;50.936;5.334;2023-05-10T10:01:55;12.32;;;7.47;;
25023;SDS011;13033;50.936;5.334;2023-05-10T10:04:22;15.88;;;9.18;;
25023;SDS011;13033;50.936;5.334;2023-05-10T10:06:58;14.40;;;9.45;;
25023;SDS011;13033;50.936;5.334;2023-05-10T10:09:24;15.43;;;9.63;;
25023;SDS011;13033;50.936;5.334;2023-05-10T10:11:50;15.25;;;9.70;;
25023;SDS011;13033;50.936;5.334;2023-05-10T10:14:18;19.15;;;10.05;;
25023;SDS011;13033;50.936;5.334;2023-05-10T10:16:43;17.90;;;10.10;;
25023;SDS011;13033;50.936;5.334;2023-05-10T10:19:10;16.83;;;10.55;;
25023;SDS011;13033;50.936;5.334;2023-05-10T10:21:35;14.27;;;9.88;;
25023;SDS011;13033;50.936;5.334;2023-05-10T10:24:01;15.55;;;10.88;;
25023;SDS011;13033;50.936;5.334;2023-05-10T10:26:30;16.10;;;10.43;;
25023;SDS011;13033;50.936;5.334;2023-05-10T10:31:39;17.73;;;11.30;;
25023;SDS011;13033;50.936;5.334;2023-05-10T10:36:46;19.02;;;11.38;;
25023;SDS011;13033;50.936;5.334;2023-05-10T10:39:13;14.88;;;10.20;;
25023;SDS011;13033;50.936;5.334;2023-05-10T10:41:40;16.90;;;10.13;;
25023;SDS011;13033;50.936;5.334;2023-05-10T10:55:01;15.18;;;9.57;;
25023;SDS011;13033;50.936;5.334;2023-05-10T10:57:27;15.23;;;8.80;;
25023;SDS011;13033;50.936;5.334;2023-05-10T11:05:38;12.85;;;7.78;;
25023;SDS011;13033;50.936;5.334;2023-05-10T11:10:37;10.13;;;7.43;;
25023;SDS011;13033;50.936;5.334;2023-05-10T11:13:04;11.10;;;7.60;;
25023;SDS011;13033;50.936;5.334;2023-05-10T11:15:40;8.98;;;6.47;;
25023;SDS011;13033;50.936;5.334;2023-05-10T11:18:17;8.77;;;7.00;;
25023;SDS011;13033;50.936;5.334;2023-05-10T11:20:43;9.80;;;7.57;;
25023;SDS011;13033;50.936;5.334;2023-05-10T11:23:14;9.50;;;6.78;;
25023;SDS011;13033;50.936;5.334;2023-05-10T11:25:42;9.75;;;6.05;;
25023;SDS011;13033;50.936;5.334;2023-05-10T11:28:09;10.65;;;6.53;;
25023;SDS011;13033;50.936;5.334;2023-05-10T11:30:36;9.85;;;6.25;;
25023;SDS011;13033;50.936;5.334;2023-05-10T11:33:03;8.60;;;6.47;;
25023;SDS011;13033;50.936;5.334;2023-05-10T11:35:28;8.70;;;6.38;;
25023;SDS011;13033;50.936;5.334;2023-05-10T11:37:54;8.63;;;5.82;;
25023;SDS011;13033;50.936;5.334;2023-05-10T11:40:23;7.88;;;5.85;;
25023;SDS011;13033;50.936;5.334;2023-05-10T11:42:49;8.20;;;6.38;;
25023;SDS011;13033;50.936;5.334;2023-05-10T11:45:15;9.32;;;5.53;;
25023;SDS011;13033;50.936;5.334;2023-05-10T11:47:41;8.60;;;5.88;;
25023;SDS011;13033;50.936;5.334;2023-05-10T11:50:08;7.05;;;5.47;;
25023;SDS011;13033;50.936;5.334;2023-05-10T11:52:36;7.40;;;5.20;;
25023;SDS011;13033;50.936;5.334;2023-05-10T11:55:04;8.50;;;5.63;;
25023;SDS011;13033;50.936;5.334;2023-05-10T11:57:30;7.13;;;5.40;;
25023;SDS011;13033;50.936;5.334;2023-05-10T11:59:56;8.10;;;5.28;;
25023;SDS011;13033;50.936;5.334;2023-05-10T12:02:22;8.40;;;5.22;;
25023;SDS011;13033;50.936;5.334;2023-05-10T12:04:48;7.18;;;5.03;;
25023;SDS011;13033;50.936;5.334;2023-05-10T12:07:15;7.07;;;5.18;;
25023;SDS011;13033;50.936;5.334;2023-05-10T12:09:42;7.60;;;5.15;;
25023;SDS011;13033;50.936;5.334;2023-05-10T12:12:10;6.28;;;4.90;;
25023;SDS011;13033;50.936;5.334;2023-05-10T12:14:40;5.88;;;4.50;;
25023;SDS011;13033;50.936;5.334;2023-05-10T12:17:06;6.43;;;4.47;;
25023;SDS011;13033;50.936;5.334;2023-05-10T12:19:38;6.57;;;4.45;;
25023;SDS011;13033;50.936;5.334;2023-05-10T12:22:05;6.93;;;4.63;;
25023;SDS011;13033;50.936;5.334;2023-05-10T12:24:33;5.90;;;4.40;;
25023;SDS011;13033;50.936;5.334;2023-05-10T12:26:59;6.25;;;4.15;;
25023;SDS011;13033;50.936;5.334;2023-05-10T12:29:30;5.63;;;4.18;;
25023;SDS011;13033;50.936;5.334;2023-05-10T12:31:57;6.43;;;4.38;;
25023;SDS011;13033;50.936;5.334;2023-05-10T12:34:31;5.18;;;3.75;;
25023;SDS011;13033;50.936;5.334;2023-05-10T12:36:59;6.47;;;4.10;;
25023;SDS011;13033;50.936;5.334;2023-05-10T12:39:25;6.22;;;4.35;;
25023;SDS011;13033;50.936;5.334;2023-05-10T12:41:56;6.47;;;4.45;;
25023;SDS011;13033;50.936;5.334;2023-05-10T12:44:22;5.95;;;4.43;;
25023;SDS011;13033;50.936;5.334;2023-05-10T12:46:47;5.22;;;4.20;;
25023;SDS011;13033;50.936;5.334;2023-05-10T12:49:13;5.95;;;4.95;;
25023;SDS011;13033;50.936;5.334;2023-05-10T12:51:38;8.27;;;4.50;;
25023;SDS011;13033;50.936;5.334;2023-05-10T12:54:04;7.22;;;4.20;;
25023;SDS011;13033;50.936;5.334;2023-05-10T12:56:30;4.60;;;3.90;;
25023;SDS011;13033;50.936;5.334;2023-05-10T12:58:56;4.40;;;3.97;;
25023;SDS011;13033;50.936;5.334;2023-05-10T13:01:21;4.80;;;3.22;;
25023;SDS011;13033;50.936;5.334;2023-05-10T13:03:47;4.63;;;3.00;;
25023;SDS011;13033;50.936;5.334;2023-05-10T13:06:13;4.38;;;2.83;;
25023;SDS011;13033;50.936;5.334;2023-05-10T13:08:38;3.28;;;2.58;;
25023;SDS011;13033;50.936;5.334;2023-05-10T13:11:05;3.83;;;2.90;;
25023;SDS011;13033;50.936;5.334;2023-05-10T13:13:31;3.13;;;2.58;;
25023;SDS011;13033;50.936;5.334;2023-05-10T13:15:56;3.35;;;2.50;;
25023;SDS011;13033;50.936;5.334;2023-05-10T13:18:22;3.65;;;2.67;;
25023;SDS011;13033;50.936;5.334;2023-05-10T13:20:49;2.78;;;2.50;;
25023;SDS011;13033;50.936;5.334;2023-05-10T13:23:14;2.75;;;2.05;;
25023;SDS011;13033;50.936;5.334;2023-05-10T13:25:40;3.78;;;2.10;;
25023;SDS011;13033;50.936;5.334;2023-05-10T13:28:05;4.07;;;2.35;;
25023;SDS011;13033;50.936;5.334;2023-05-10T13:30:31;2.58;;;2.10;;
25023;SDS011;13033;50.936;5.334;2023-05-10T13:32:57;3.33;;;2.63;;
25023;SDS011;13033;50.936;5.334;2023-05-10T13:35:22;3.90;;;3.30;;
25023;SDS011;13033;50.936;5.334;2023-05-10T13:37:48;3.95;;;3.22;;
25023;SDS011;13033;50.936;5.334;2023-05-10T13:40:14;3.10;;;2.50;;
25023;SDS011;13033;50.936;5.334;2023-05-10T13:42:40;3.50;;;2.33;;
25023;SDS011;13033;50.936;5.334;2023-05-10T13:45:06;2.30;;;2.10;;
25023;SDS011;13033;50.936;5.334;2023-05-10T13:47:32;1.92;;;1.70;;
25023;SDS011;13033;50.936;5.334;2023-05-10T13:49:58;2.63;;;1.77;;
25023;SDS011;13033;50.936;5.334;2023-05-10T13:52:23;1.50;;;1.40;;
25023;SDS011;13033;50.936;5.334;2023-05-10T13:54:49;1.55;;;1.38;;
25023;SDS011;13033;50.936;5.334;2023-05-10T13:57:17;1.67;;;1.38;;
25023;SDS011;13033;50.936;5.334;2023-05-10T13:59:43;2.15;;;1.80;;
25023;SDS011;13033;50.936;5.334;2023-05-10T14:02:08;2.38;;;2.10;;
25023;SDS011;13033;50.936;5.334;2023-05-10T14:04:34;2.28;;;1.92;;
25023;SDS011;13033;50.936;5.334;2023-05-10T14:07:00;2.00;;;1.67;;
25023;SDS011;13033;50.936;5.334;2023-05-10T14:09:26;2.60;;;1.80;;
25023;SDS011;13033;50.936;5.334;2023-05-10T14:11:51;4.30;;;1.90;;
25023;SDS011;13033;50.936;5.334;2023-05-10T14:14:17;2.17;;;1.88;;
25023;SDS011;13033;50.936;5.334;2023-05-10T14:16:43;2.78;;;2.45;;
25023;SDS011;13033;50.936;5.334;2023-05-10T14:19:10;3.33;;;2.53;;
25023;SDS011;13033;50.936;5.334;2023-05-10T14:21:36;3.05;;;2.40;;
25023;SDS011;13033;50.936;5.334;2023-05-10T14:24:02;3.78;;;2.55;;
25023;SDS011;13033;50.936;5.334;2023-05-10T14:26:27;3.75;;;3.10;;
25023;SDS011;13033;50.936;5.334;2023-05-10T14:28:53;2.80;;;2.28;;
25023;SDS011;13033;50.936;5.334;2023-05-10T14:31:19;3.88;;;2.40;;
25023;SDS011;13033;50.936;5.334;2023-05-10T14:33:45;2.80;;;2.45;;
25023;SDS011;13033;50.936;5.334;2023-05-10T14:36:12;3.95;;;3.00;;
25023;SDS011;13033;50.936;5.334;2023-05-10T14:38:39;3.20;;;2.85;;
25023;SDS011;13033;50.936;5.334;2023-05-10T14:41:04;3.63;;;2.80;;
25023;SDS011;13033;50.936;5.334;2023-05-10T14:43:30;3.38;;;2.90;;
25023;SDS011;13033;50.936;5.334;2023-05-10T14:45:56;3.25;;;2.75;;
25023;SDS011;13033;50.936;5.334;2023-05-10T14:48:21;3.47;;;2.70;;
25023;SDS011;13033;50.936;5.334;2023-05-10T14:50:47;4.43;;;2.83;;
25023;SDS011;13033;50.936;5.334;2023-05-10T14:53:14;3.53;;;2.50;;
25023;SDS011;13033;50.936;5.334;2023-05-10T14:55:40;3.67;;;2.53;;
25023;SDS011;13033;50.936;5.334;2023-05-10T14:58:06;4.50;;;2.42;;
25023;SDS011;13033;50.936;5.334;2023-05-10T15:00:31;3.97;;;2.50;;
25023;SDS011;13033;50.936;5.334;2023-05-10T15:02:57;2.75;;;2.45;;
25023;SDS011;13033;50.936;5.334;2023-05-10T15:05:23;2.75;;;2.55;;
25023;SDS011;13033;50.936;5.334;2023-05-10T15:07:48;3.53;;;2.70;;
25023;SDS011;13033;50.936;5.334;2023-05-10T15:10:14;3.70;;;2.33;;
25023;SDS011;13033;50.936;5.334;2023-05-10T15:12:40;2.97;;;2.30;;